Amargosa Valley, Nevada Weather observations

Data are for observation ending at time listed.
 Day   Time    Ave.   Ave.  Ave.  Vector   Max.   Stn.    Total    Solar   Ave.  
  of    of     Air    Rel.  Wind   Wind    Wind   Baro.  Precip.   Rad.    Soil  
Year   Day     Temp.  Hum.  Speed  Dir.    Gust   Pres.                    Temp. 
2015   (PST)    F      %     mph   deg.    mph     mb.     in.     W/m2     F   
------------------------------------------------------------------------------
 186    9:50   96.8    17    1.2   112      3.7   928.8    0.00     828    92.3
 186   10:00   96.4    17    3.3   213      7.2   928.9    0.00     846    92.3
 186   10:10   95.2    18    4.9   191      8.2   928.9    0.00     865    92.3
 186   10:20   95.3    18    3.7   214      8.4   928.9    0.00     880    92.4
 186   10:30   95.9    17    2.3    93      8.0   928.8    0.00     893    92.4
 186   10:40   96.7    17    3.9   241      9.6   928.7    0.00     904    92.5
 186   10:50   96.4    17    3.3   223      8.9   928.6    0.00     914    92.6
 186   11:00   96.5    18    6.3   219     12.0   928.6    0.00     922    92.7
 186   11:10   97.0    17    3.0   208      7.6   928.5    0.00     928    92.8
 186   11:20   98.0    16    2.4   127      6.1   928.4    0.00     933    92.8
 186   11:30   98.7    16    4.3   233     12.6   928.1    0.00     936    92.9
 186   11:40   98.1    16    4.3   207     11.1   928.0    0.00     938    93.0
 186   11:50   99.2    15    1.7   278      4.2   928.0    0.00     938    93.1
 186   12:00   98.8    15    3.0   321      8.4   927.7    0.00     941    93.2
 186   12:10   99.4    15    7.8   188     14.2   927.6    0.00     938    93.3
 186   12:20   99.3    15    7.9   206     15.7   927.4    0.00     935    93.4
 186   12:30   99.7    15    3.2   224     10.0   927.3    0.00     931    93.5
 186   12:40  100.0    15    6.0   215     12.3   927.1    0.00     928    93.6
 186   12:50  100.3    15    5.4   220     13.4   927.0    0.00     925    93.7
 186   13:00  100.3    15    5.6   227     13.0   926.8    0.00     919    93.8
 186   13:10  100.3    14    3.8   308     15.2   926.6    0.00     912    94.0
 186   13:20  101.1    14    4.1   261      9.8   926.5    0.00     903    94.2
 186   13:30  101.5    14    3.4   232     11.5   926.4    0.00     896    94.4
 186   13:40  101.6    14    4.9   175     12.3   926.3    0.00     889    94.6
 186   13:50  102.9    13    2.3   177     10.1   926.4    0.00     906    94.9
 186   14:00  101.9    14    6.7   105     12.0   926.2    0.00     886    95.1
 186   14:10  102.0    13    6.1   204     16.2   926.1    0.00     870    95.4
 186   14:20  101.9    13    7.4   200     14.6   926.0    0.00     875    95.7
 186   14:30  102.1    13    3.6   240     10.6   925.8    0.00     852    96.0
 186   14:40  102.8    13    3.4   140     15.6   925.7    0.00     621    96.3
 186   14:50  101.5    14    8.7   158     13.1   925.6    0.00     316    96.6
 186   15:00  100.9    14    6.8   159     10.9   925.5    0.00     777    97.0
 186   15:10  101.0    14    4.8   163      8.8   925.4    0.00     494    97.3
 186   15:20  101.5    14    3.9   122      9.4   925.2    0.00     228    97.6
 186   15:30  100.9    15    4.4   148     17.8   925.1    0.00     194    97.8
 186   15:40  101.5    13    2.1   132      9.6   925.0    0.00     174    98.1
 186   15:50  101.4    13    2.9    84      7.2   924.9    0.00     154    98.3
 186   16:00  101.5    13    4.9   114      8.5   924.8    0.00     167    98.5
 186   16:10  101.5    13    7.1    98     11.8   924.8    0.00     174    98.7
 186   16:20  101.2    13    6.5    89     11.0   924.7    0.00     181    98.8
 186   16:30  101.5    13    4.6    84     12.3   924.7    0.00     163    98.9
 186   16:40  100.9    15    6.6   150     12.6   924.7    0.00     189    99.0
 186   16:50   98.4    19    7.2   103     22.9   924.6    0.00     182    99.3
 186   17:00   98.4    18    7.9   125     20.7   924.5    0.00     159    99.4
 186   17:10   98.8    15   11.7    86     22.7   924.4    0.00     150    99.4
 186   17:20   97.4    21    6.0    81     17.5   924.6    0.00     117    99.4
 186   17:30   98.1    15    5.6   285     27.7   925.2    0.00      74    99.5
 186   17:40   98.6    13    2.5   288      7.3   925.6    0.00      43    99.5
 186   17:50   97.3    16    5.3   206     21.5   926.2    0.00      57    99.5
 186   18:00   88.6    29   12.9   183     23.9   926.5    0.06      45    99.6
 186   18:10   87.6    28   13.3   175     21.5   926.1    0.03      28    99.7
 186   18:20   87.2    32   13.8   168     21.8   925.9    0.00       8    99.6
 186   18:30   82.9    41    8.2   162     14.4   926.5    0.00       3    99.6
 186   18:40   84.8    34    3.1   114     10.2   927.1    0.02       2    99.5
 186   18:50   86.5    28    1.7   338      6.8   927.6    0.00       1    99.4
 186   19:00   86.2    36    2.3    25      8.5   928.3    0.00       3    99.3
 186   19:10   85.0    36    4.3    35      8.3   929.0    0.00       1    99.2
 186   19:20   83.6    41    4.2    45      8.9   929.6    0.01       0    99.0
 186   19:30   79.3    51    4.7    68     10.2   930.0    0.01       0    98.8
 186   19:40   78.1    57    8.5    91     11.3   930.0    0.00       0    98.7
 186   19:50   77.1    63    8.0    93     11.2   930.2    0.01       0    98.5
 186   20:00   76.9    60   11.5    88     15.9   930.3    0.01       0    98.2
 186   20:10   75.4    67   13.6   103     17.8   929.8    0.00       0    98.0
 186   20:20   76.0    65   16.3    94     19.6   929.4    0.00       0    97.7
 186   20:30   77.4    56   16.0    95     21.9   929.4    0.00       0    97.4
 186   20:40   77.6    56   14.2    92     18.9   929.7    0.00       0    97.2
 186   20:50   77.5    57   11.3    93     15.6   929.8    0.00       1    96.9
 186   21:00   78.2    51   10.2    95     14.2   929.7    0.00       0    96.7
 186   21:10   78.7    49    6.7    85     13.7   929.8    0.00       0    96.4
 186   21:20   78.3    50    1.7    94      6.0   929.7    0.00       0    96.2
 186   21:30   77.3    55    2.9   284      6.6   929.7    0.00       0    95.9
 186   21:40   77.5    52    3.0   128      6.9   929.8    0.00       0    95.7
 186   21:50   78.2    49    1.2    73      6.4   929.9    0.00       0    95.5
 186   22:00   78.2    49    2.3   240      7.2   929.8    0.00       0    95.2
 186   22:10   77.7    51    1.7   234      5.7   929.6    0.00       0    95.0
 186   22:20   77.8    50    4.9   225      8.3   929.5    0.00       0    94.8
 186   22:30   77.4    51    2.8   224      4.5   929.2    0.00       0    94.6
 186   22:40   78.7    45    2.4   254      5.5   929.1    0.00       0    94.4
 186   22:50   77.3    52    4.1   231      6.5   929.1    0.00       1    94.1
 186   23:00   77.2    52    3.9   223      6.2   929.0    0.00       1    93.9
 186   23:10   77.4    51    3.9   234      7.7   928.9    0.00       0    93.7
 186   23:20   76.7    53    1.7   306      3.8   928.9    0.00       0    93.5
 186   23:30   76.0    55    2.1   312      6.0   928.8    0.00       0    93.4
 186   23:40   75.8    56    2.3   313      6.6   928.8    0.00       0    93.2
 186   23:50   74.4    60    1.4   323      3.7   928.8    0.00       0    93.0
 187    0:00   74.7    55    2.9   318      7.2   928.6    0.00       0    92.8
 187    0:10   74.8    56    1.8   322      4.7   928.5    0.00       0    92.7
 187    0:20   73.9    59    0.6   328      4.5   928.5    0.00       0    92.4
 187    0:30   73.2    61    1.2   324      2.9   928.4    0.00       0    92.2
 187    0:40   73.1    61    0.6   333      2.3   928.3    0.00       0    92.1
 187    0:50   72.6    64    1.6    34      4.4   928.4    0.00       0    91.9
 187    1:00   72.6    64    2.0    37      5.1   928.5    0.00       0    91.8
 187    1:10   73.3    60    1.0    28      2.8   928.5    0.00       0    91.6
 187    1:20   73.6    57    0.7    27      2.3   928.5    0.00       0    91.4
 187    1:30   73.3    60    2.0   111      4.0   928.6    0.00       0    91.3
 187    1:40   71.3    66    1.2   154      3.2   928.6    0.00       0    91.1
 187    1:50   71.6    65    1.9   151      2.9   928.7    0.00       0    91.0
 187    2:00   70.9    68    0.9   201      2.0   928.7    0.00       0    90.8
 187    2:10   70.4    73    1.1   293      3.2   928.9    0.00       0    90.7
 187    2:20   69.5    72    1.8   307      4.6   929.0    0.00       0    90.6
 187    2:30   70.1    67    1.8   312      4.2   929.0    0.00       0    90.4
 187    2:40   69.9    70    0.2   350      1.5   929.1    0.00       0    90.2
 187    2:50   69.0    74    0.3   340      1.4   929.1    0.00       0    90.1
 187    3:00   69.0    72    0.3    16      2.4   929.1    0.00       0    89.9
 187    3:10   70.3    67    0.5    44      1.8   929.2    0.00       0    89.8
 187    3:20   69.9    69    0.0     1      1.5   929.2    0.00       0    89.6
 187    3:30   69.7    68    0.0   312      0.4   929.2    0.00       0    89.5
 187    3:40   70.1    67    0.2    19      1.2   929.2    0.00       0    89.3
 187    3:50   71.0    62    1.1    40      2.6   929.3    0.00       0    89.2
 187    4:00   71.3    62    1.6    38      2.4   929.4    0.00       0    89.1
 187    4:10   70.1    69    1.8    36      3.1   929.5    0.00       0    88.9
 187    4:20   69.7    70    2.5    37      4.5   929.6    0.00       0    88.8
 187    4:30   69.3    70    2.1    34      4.1   929.6    0.00       2    88.7
 187    4:40   68.7    72    0.5    14      2.2   929.6    0.00       4    88.5
 187    4:50   68.3    74    1.0    25      2.6   929.7    0.00       6    88.4
 187    5:00   68.1    75    0.1     4      2.0   929.8    0.00       9    88.3
 187    5:10   67.7    77    0.4   354      1.8   929.9    0.00      13    88.1
 187    5:20   67.8    75    1.4    15      3.6   930.0    0.00      17    88.0
 187    5:30   68.7    71    2.2    28      3.9   930.1    0.00      21    87.9
 187    5:40   68.5    74    2.5    28      5.2   930.2    0.00      82    87.7
 187    5:50   69.7    69    2.6    25      5.0   930.3    0.00     156    87.6
 187    6:00   71.5    64    2.0    26      5.0   930.5    0.00     127    87.5
 187    6:10   72.9    61    0.8    16      2.6   930.7    0.00     105    87.4
 187    6:20   72.7    63    1.5    26      3.8   930.7    0.00      63    87.2
 187    6:30   72.6    64    1.8    42      3.8   930.8    0.00     138    87.1
 187    6:40   75.3    57    1.6    45      3.4   930.8    0.00     333    87.0
 187    6:50   77.8    50    1.7    37      3.1   930.9    0.00     363    86.8
 187    7:00   79.0    47    1.7    33      3.5   931.0    0.00     364    86.7
 187    7:10   78.9    48    0.9    16      3.1   931.1    0.00     220    86.6
 187    7:20   79.6    48    0.6    24      1.8   931.2    0.00     391    86.5
 187    7:30   82.4    38    0.8    28      2.6   931.3    0.00     473    86.4
 187    7:40   84.6    33    0.7    44      2.3   931.4    0.00     524    86.3
 187    7:50   86.0    30    0.6    34      2.8   931.6    0.00     548    86.3
 187    8:00   85.8    29    0.9    13      2.2   931.7    0.00     574    86.2
 187    8:10   86.1    29    1.0    34      3.7   931.8    0.00     620    86.1
 187    8:20   86.6    28    1.8    95      4.9   931.9    0.00     638    86.0
 187    8:30   87.5    28    1.6    72      3.0   931.9    0.00     661    86.0
 187    8:40   87.5    27    1.2    85      3.1   932.0    0.00     670    86.0
 187    8:50   88.1    27    2.0   113      5.6   932.0    0.00     665    85.9
 187    9:00   87.9    26    2.4   176      4.9   932.0    0.00     721    86.0
 187    9:10   88.5    26    3.2   133      7.3   931.8    0.00     745    85.9
 187    9:20   88.3    26    4.0   138      8.4   931.8    0.00     762    86.0
 187    9:30   88.5    26    5.2   152      9.2   931.8    0.00     796    86.0
 187    9:40   88.7    26    6.2   178     11.8   931.7    0.00     814    86.0

Return to Amargosa Valley, Nevada graphs page.


Western Regional Climate Center,wrcc@dri.edu